sensor_id;sensor_type;location;lat;lon;timestamp;temperature;humidity
71367;DHT22;60030;52.274;8.040;2023-05-02T00:00:30;14.10;99.90
71367;DHT22;60030;52.274;8.040;2023-05-02T00:02:57;14.20;99.90
71367;DHT22;60030;52.274;8.040;2023-05-02T00:05:24;14.10;99.90
71367;DHT22;60030;52.274;8.040;2023-05-02T00:07:53;14.20;99.90
71367;DHT22;60030;52.274;8.040;2023-05-02T00:10:20;14.10;99.90
71367;DHT22;60030;52.274;8.040;2023-05-02T00:12:47;14.10;99.90
71367;DHT22;60030;52.274;8.040;2023-05-02T00:15:15;14.10;99.90
71367;DHT22;60030;52.274;8.040;2023-05-02T00:17:42;14.10;99.90
71367;DHT22;60030;52.274;8.040;2023-05-02T00:20:10;14.10;99.90
71367;DHT22;60030;52.274;8.040;2023-05-02T00:22:38;14.00;99.90
71367;DHT22;60030;52.274;8.040;2023-05-02T00:25:08;14.00;99.90
71367;DHT22;60030;52.274;8.040;2023-05-02T00:27:40;13.80;99.90
71367;DHT22;60030;52.274;8.040;2023-05-02T00:30:08;13.80;99.90
71367;DHT22;60030;52.274;8.040;2023-05-02T00:32:35;13.70;99.90
71367;DHT22;60030;52.274;8.040;2023-05-02T00:35:03;13.70;99.90
71367;DHT22;60030;52.274;8.040;2023-05-02T00:37:31;13.70;99.90
71367;DHT22;60030;52.274;8.040;2023-05-02T00:39:58;13.70;99.90
71367;DHT22;60030;52.274;8.040;2023-05-02T00:42:26;13.60;99.90
71367;DHT22;60030;52.274;8.040;2023-05-02T00:44:57;13.50;99.90
71367;DHT22;60030;52.274;8.040;2023-05-02T00:47:24;13.60;99.90
71367;DHT22;60030;52.274;8.040;2023-05-02T00:49:52;13.70;99.90
71367;DHT22;60030;52.274;8.040;2023-05-02T00:52:19;13.60;99.90
71367;DHT22;60030;52.274;8.040;2023-05-02T00:54:46;13.40;99.90
71367;DHT22;60030;52.274;8.040;2023-05-02T00:57:14;13.40;99.90
71367;DHT22;60030;52.274;8.040;2023-05-02T00:59:42;13.40;99.90
71367;DHT22;60030;52.274;8.040;2023-05-02T01:02:24;13.30;99.90
71367;DHT22;60030;52.274;8.040;2023-05-02T01:04:58;13.20;99.90
71367;DHT22;60030;52.274;8.040;2023-05-02T01:07:38;13.30;99.90
71367;DHT22;60030;52.274;8.040;2023-05-02T01:10:16;13.30;99.90
71367;DHT22;60030;52.274;8.040;2023-05-02T01:12:50;13.10;99.90
71367;DHT22;60030;52.274;8.040;2023-05-02T01:15:22;13.10;99.90
71367;DHT22;60030;52.274;8.040;2023-05-02T01:17:51;13.30;99.90
71367;DHT22;60030;52.274;8.040;2023-05-02T01:20:22;13.20;99.90
71367;DHT22;60030;52.274;8.040;2023-05-02T01:22:49;13.10;99.90
71367;DHT22;60030;52.274;8.040;2023-05-02T01:25:26;13.20;99.90
71367;DHT22;60030;52.274;8.040;2023-05-02T01:28:04;13.20;99.90
71367;DHT22;60030;52.274;8.040;2023-05-02T01:30:36;13.20;99.90
71367;DHT22;60030;52.274;8.040;2023-05-02T01:33:05;13.20;99.90
71367;DHT22;60030;52.274;8.040;2023-05-02T01:35:36;13.00;99.90
71367;DHT22;60030;52.274;8.040;2023-05-02T01:38:06;13.10;99.90
71367;DHT22;60030;52.274;8.040;2023-05-02T01:40:33;13.10;99.90
71367;DHT22;60030;52.274;8.040;2023-05-02T01:43:04;13.10;99.90
71367;DHT22;60030;52.274;8.040;2023-05-02T01:45:37;13.10;99.90
71367;DHT22;60030;52.274;8.040;2023-05-02T01:48:05;13.10;99.90
71367;DHT22;60030;52.274;8.040;2023-05-02T01:50:33;13.00;99.90
71367;DHT22;60030;52.274;8.040;2023-05-02T01:53:02;12.80;99.90
71367;DHT22;60030;52.274;8.040;2023-05-02T01:55:32;12.90;99.90
71367;DHT22;60030;52.274;8.040;2023-05-02T01:58:01;12.90;99.90
71367;DHT22;60030;52.274;8.040;2023-05-02T02:00:29;13.00;99.90
71367;DHT22;60030;52.274;8.040;2023-05-02T02:03:00;13.00;99.90
71367;DHT22;60030;52.274;8.040;2023-05-02T02:05:28;13.00;99.90
71367;DHT22;60030;52.274;8.040;2023-05-02T02:07:55;12.90;99.90
71367;DHT22;60030;52.274;8.040;2023-05-02T02:10:24;12.80;99.90
71367;DHT22;60030;52.274;8.040;2023-05-02T02:12:55;12.90;99.90
71367;DHT22;60030;52.274;8.040;2023-05-02T02:15:27;12.80;99.90
71367;DHT22;60030;52.274;8.040;2023-05-02T02:17:59;12.90;99.90
71367;DHT22;60030;52.274;8.040;2023-05-02T02:20:28;13.00;99.90
71367;DHT22;60030;52.274;8.040;2023-05-02T02:22:59;13.00;99.90
71367;DHT22;60030;52.274;8.040;2023-05-02T02:25:26;13.00;99.90
71367;DHT22;60030;52.274;8.040;2023-05-02T02:27:54;13.00;99.90
71367;DHT22;60030;52.274;8.040;2023-05-02T02:30:22;12.90;99.90
71367;DHT22;60030;52.274;8.040;2023-05-02T02:32:49;12.80;99.90
71367;DHT22;60030;52.274;8.040;2023-05-02T02:35:18;12.90;99.90
71367;DHT22;60030;52.274;8.040;2023-05-02T02:37:57;13.10;99.90
71367;DHT22;60030;52.274;8.040;2023-05-02T02:40:31;13.10;99.90
71367;DHT22;60030;52.274;8.040;2023-05-02T02:43:07;13.00;99.90
71367;DHT22;60030;52.274;8.040;2023-05-02T02:45:42;13.10;99.90
71367;DHT22;60030;52.274;8.040;2023-05-02T02:48:19;12.90;99.90
71367;DHT22;60030;52.274;8.040;2023-05-02T02:51:01;12.90;99.90
71367;DHT22;60030;52.274;8.040;2023-05-02T02:53:33;12.90;99.90
71367;DHT22;60030;52.274;8.040;2023-05-02T02:56:06;12.70;99.90
71367;DHT22;60030;52.274;8.040;2023-05-02T02:58:46;12.80;99.90
71367;DHT22;60030;52.274;8.040;2023-05-02T03:01:17;12.90;99.90
71367;DHT22;60030;52.274;8.040;2023-05-02T03:03:46;12.80;99.90
71367;DHT22;60030;52.274;8.040;2023-05-02T03:06:15;12.70;99.90
71367;DHT22;60030;52.274;8.040;2023-05-02T03:08:43;12.80;99.90
71367;DHT22;60030;52.274;8.040;2023-05-02T03:11:16;12.60;99.90
71367;DHT22;60030;52.274;8.040;2023-05-02T03:13:43;12.70;99.90
71367;DHT22;60030;52.274;8.040;2023-05-02T03:16:30;12.80;99.90
71367;DHT22;60030;52.274;8.040;2023-05-02T03:18:58;12.90;99.90
71367;DHT22;60030;52.274;8.040;2023-05-02T03:21:27;12.80;99.90
71367;DHT22;60030;52.274;8.040;2023-05-02T03:23:57;12.80;99.90
71367;DHT22;60030;52.274;8.040;2023-05-02T03:26:24;12.80;99.90
71367;DHT22;60030;52.274;8.040;2023-05-02T03:28:52;12.70;99.90
71367;DHT22;60030;52.274;8.040;2023-05-02T03:31:25;12.80;99.90
71367;DHT22;60030;52.274;8.040;2023-05-02T03:33:53;12.70;99.90
71367;DHT22;60030;52.274;8.040;2023-05-02T03:36:22;12.80;99.90
71367;DHT22;60030;52.274;8.040;2023-05-02T03:38:53;12.80;99.90
71367;DHT22;60030;52.274;8.040;2023-05-02T03:41:20;12.60;99.90
71367;DHT22;60030;52.274;8.040;2023-05-02T03:43:54;12.70;99.90
71367;DHT22;60030;52.274;8.040;2023-05-02T03:46:25;12.70;99.90
71367;DHT22;60030;52.274;8.040;2023-05-02T03:48:54;12.60;99.90
71367;DHT22;60030;52.274;8.040;2023-05-02T03:51:23;12.70;99.90
71367;DHT22;60030;52.274;8.040;2023-05-02T03:53:54;12.60;99.90
71367;DHT22;60030;52.274;8.040;2023-05-02T03:56:22;12.50;99.90
71367;DHT22;60030;52.274;8.040;2023-05-02T03:58:59;12.30;99.90
71367;DHT22;60030;52.274;8.040;2023-05-02T04:01:27;12.20;99.90
71367;DHT22;60030;52.274;8.040;2023-05-02T04:03:55;12.20;99.90
71367;DHT22;60030;52.274;8.040;2023-05-02T04:06:25;12.20;99.90
71367;DHT22;60030;52.274;8.040;2023-05-02T04:08:59;12.30;99.90
71367;DHT22;60030;52.274;8.040;2023-05-02T04:11:34;12.30;99.90
71367;DHT22;60030;52.274;8.040;2023-05-02T04:14:03;12.20;99.90
71367;DHT22;60030;52.274;8.040;2023-05-02T04:16:30;12.10;99.90
71367;DHT22;60030;52.274;8.040;2023-05-02T04:18:57;12.10;99.90
71367;DHT22;60030;52.274;8.040;2023-05-02T04:21:25;12.20;99.90
71367;DHT22;60030;52.274;8.040;2023-05-02T04:23:52;12.20;99.90
71367;DHT22;60030;52.274;8.040;2023-05-02T04:26:21;12.20;99.90
71367;DHT22;60030;52.274;8.040;2023-05-02T04:28:55;12.00;99.90
71367;DHT22;60030;52.274;8.040;2023-05-02T04:31:22;12.10;99.90
71367;DHT22;60030;52.274;8.040;2023-05-02T04:33:51;12.00;99.90
71367;DHT22;60030;52.274;8.040;2023-05-02T04:36:24;11.90;99.90
71367;DHT22;60030;52.274;8.040;2023-05-02T04:38:53;11.90;99.90
71367;DHT22;60030;52.274;8.040;2023-05-02T04:41:22;11.90;99.90
71367;DHT22;60030;52.274;8.040;2023-05-02T04:43:56;12.00;99.90
71367;DHT22;60030;52.274;8.040;2023-05-02T04:46:23;11.90;99.90
71367;DHT22;60030;52.274;8.040;2023-05-02T04:48:50;12.00;99.90
71367;DHT22;60030;52.274;8.040;2023-05-02T04:51:18;12.00;99.90
71367;DHT22;60030;52.274;8.040;2023-05-02T04:53:48;12.10;99.90
71367;DHT22;60030;52.274;8.040;2023-05-02T04:56:15;12.10;99.90
71367;DHT22;60030;52.274;8.040;2023-05-02T04:58:43;11.90;99.90
71367;DHT22;60030;52.274;8.040;2023-05-02T05:01:11;11.90;99.90
71367;DHT22;60030;52.274;8.040;2023-05-02T05:03:39;11.90;99.90
71367;DHT22;60030;52.274;8.040;2023-05-02T05:06:07;11.80;99.90
71367;DHT22;60030;52.274;8.040;2023-05-02T05:08:34;11.70;99.90
71367;DHT22;60030;52.274;8.040;2023-05-02T05:11:02;11.80;99.90
71367;DHT22;60030;52.274;8.040;2023-05-02T05:13:30;11.50;99.90
71367;DHT22;60030;52.274;8.040;2023-05-02T05:15:59;11.70;99.90
71367;DHT22;60030;52.274;8.040;2023-05-02T05:18:30;11.50;99.90
71367;DHT22;60030;52.274;8.040;2023-05-02T05:20:58;11.50;99.90
71367;DHT22;60030;52.274;8.040;2023-05-02T05:23:27;11.50;99.90
71367;DHT22;60030;52.274;8.040;2023-05-02T05:25:54;11.40;99.90
71367;DHT22;60030;52.274;8.040;2023-05-02T05:28:22;11.30;99.90
71367;DHT22;60030;52.274;8.040;2023-05-02T05:30:49;11.20;99.90
71367;DHT22;60030;52.274;8.040;2023-05-02T05:33:21;11.20;99.90
71367;DHT22;60030;52.274;8.040;2023-05-02T05:35:49;11.20;99.90
71367;DHT22;60030;52.274;8.040;2023-05-02T05:38:16;11.10;99.90
71367;DHT22;60030;52.274;8.040;2023-05-02T05:40:48;11.10;99.90
71367;DHT22;60030;52.274;8.040;2023-05-02T05:43:16;10.90;99.90
71367;DHT22;60030;52.274;8.040;2023-05-02T05:45:44;11.00;99.90
71367;DHT22;60030;52.274;8.040;2023-05-02T05:48:11;10.90;99.90
71367;DHT22;60030;52.274;8.040;2023-05-02T05:50:44;10.70;99.90
71367;DHT22;60030;52.274;8.040;2023-05-02T05:53:12;10.90;99.90
71367;DHT22;60030;52.274;8.040;2023-05-02T05:55:41;11.00;99.90
71367;DHT22;60030;52.274;8.040;2023-05-02T05:58:08;10.80;99.90
71367;DHT22;60030;52.274;8.040;2023-05-02T06:00:37;10.40;99.90
71367;DHT22;60030;52.274;8.040;2023-05-02T06:03:04;10.50;99.90
71367;DHT22;60030;52.274;8.040;2023-05-02T06:05:32;10.80;99.90
71367;DHT22;60030;52.274;8.040;2023-05-02T06:08:00;10.80;99.90
71367;DHT22;60030;52.274;8.040;2023-05-02T06:10:27;10.80;99.90
71367;DHT22;60030;52.274;8.040;2023-05-02T06:12:57;10.80;99.90
71367;DHT22;60030;52.274;8.040;2023-05-02T06:15:29;10.70;99.90
71367;DHT22;60030;52.274;8.040;2023-05-02T06:17:56;11.00;99.90
71367;DHT22;60030;52.274;8.040;2023-05-02T06:20:23;11.10;99.90
71367;DHT22;60030;52.274;8.040;2023-05-02T06:22:50;11.10;99.90
71367;DHT22;60030;52.274;8.040;2023-05-02T06:25:19;11.30;99.90
71367;DHT22;60030;52.274;8.040;2023-05-02T06:27:46;11.30;99.90
71367;DHT22;60030;52.274;8.040;2023-05-02T06:30:14;11.50;99.90
71367;DHT22;60030;52.274;8.040;2023-05-02T06:32:41;11.60;99.90
71367;DHT22;60030;52.274;8.040;2023-05-02T06:35:09;11.40;99.90
71367;DHT22;60030;52.274;8.040;2023-05-02T06:37:37;11.40;99.90
71367;DHT22;60030;52.274;8.040;2023-05-02T06:40:05;11.30;99.90
71367;DHT22;60030;52.274;8.040;2023-05-02T06:42:34;11.10;99.90
71367;DHT22;60030;52.274;8.040;2023-05-02T06:45:01;11.10;99.90
71367;DHT22;60030;52.274;8.040;2023-05-02T06:47:28;11.10;99.90
71367;DHT22;60030;52.274;8.040;2023-05-02T06:49:55;11.40;99.90
71367;DHT22;60030;52.274;8.040;2023-05-02T06:52:22;11.00;99.90
71367;DHT22;60030;52.274;8.040;2023-05-02T06:54:49;10.90;99.90
71367;DHT22;60030;52.274;8.040;2023-05-02T06:57:16;10.70;99.90
71367;DHT22;60030;52.274;8.040;2023-05-02T06:59:45;10.60;99.90
71367;DHT22;60030;52.274;8.040;2023-05-02T07:02:12;10.70;99.90
71367;DHT22;60030;52.274;8.040;2023-05-02T07:04:39;11.00;99.90
71367;DHT22;60030;52.274;8.040;2023-05-02T07:07:06;11.10;99.90
71367;DHT22;60030;52.274;8.040;2023-05-02T07:09:33;11.00;99.90
71367;DHT22;60030;52.274;8.040;2023-05-02T07:12:00;11.00;99.90
71367;DHT22;60030;52.274;8.040;2023-05-02T07:14:28;11.10;99.90
71367;DHT22;60030;52.274;8.040;2023-05-02T07:16:56;11.10;99.90
71367;DHT22;60030;52.274;8.040;2023-05-02T07:19:24;11.10;99.90
71367;DHT22;60030;52.274;8.040;2023-05-02T07:21:51;10.90;99.90
71367;DHT22;60030;52.274;8.040;2023-05-02T07:24:18;10.90;99.90
71367;DHT22;60030;52.274;8.040;2023-05-02T07:26:45;10.70;99.90
71367;DHT22;60030;52.274;8.040;2023-05-02T07:29:12;11.00;99.90
71367;DHT22;60030;52.274;8.040;2023-05-02T07:31:39;11.10;99.90
71367;DHT22;60030;52.274;8.040;2023-05-02T07:34:08;11.30;99.90
71367;DHT22;60030;52.274;8.040;2023-05-02T07:36:35;11.10;99.90
71367;DHT22;60030;52.274;8.040;2023-05-02T07:39:02;11.20;99.90
71367;DHT22;60030;52.274;8.040;2023-05-02T07:41:29;11.20;99.90
71367;DHT22;60030;52.274;8.040;2023-05-02T07:43:56;11.50;99.90
71367;DHT22;60030;52.274;8.040;2023-05-02T07:46:24;11.60;99.90
71367;DHT22;60030;52.274;8.040;2023-05-02T07:48:51;11.80;99.90
71367;DHT22;60030;52.274;8.040;2023-05-02T07:51:20;11.90;99.90
71367;DHT22;60030;52.274;8.040;2023-05-02T07:53:49;11.60;99.90
71367;DHT22;60030;52.274;8.040;2023-05-02T07:56:18;11.50;99.90
71367;DHT22;60030;52.274;8.040;2023-05-02T07:58:46;11.40;99.90
71367;DHT22;60030;52.274;8.040;2023-05-02T08:01:13;11.40;99.90
71367;DHT22;60030;52.274;8.040;2023-05-02T08:03:40;11.70;99.90
71367;DHT22;60030;52.274;8.040;2023-05-02T08:06:07;11.80;99.90
71367;DHT22;60030;52.274;8.040;2023-05-02T08:08:36;11.70;99.90
71367;DHT22;60030;52.274;8.040;2023-05-02T08:11:03;11.60;99.90
71367;DHT22;60030;52.274;8.040;2023-05-02T08:13:30;11.80;99.90
71367;DHT22;60030;52.274;8.040;2023-05-02T08:15:57;11.60;99.90
71367;DHT22;60030;52.274;8.040;2023-05-02T08:18:24;11.80;99.90
71367;DHT22;60030;52.274;8.040;2023-05-02T08:20:51;11.60;99.90
71367;DHT22;60030;52.274;8.040;2023-05-02T08:23:19;11.70;99.90
71367;DHT22;60030;52.274;8.040;2023-05-02T08:25:47;11.70;99.90
71367;DHT22;60030;52.274;8.040;2023-05-02T08:28:14;11.80;99.90
71367;DHT22;60030;52.274;8.040;2023-05-02T08:30:41;11.80;99.90
71367;DHT22;60030;52.274;8.040;2023-05-02T08:33:10;11.80;99.90
71367;DHT22;60030;52.274;8.040;2023-05-02T08:35:37;11.90;99.90
71367;DHT22;60030;52.274;8.040;2023-05-02T08:38:04;11.70;99.90
71367;DHT22;60030;52.274;8.040;2023-05-02T08:40:35;11.50;99.90
71367;DHT22;60030;52.274;8.040;2023-05-02T08:43:04;11.60;99.90
71367;DHT22;60030;52.274;8.040;2023-05-02T08:45:34;11.50;99.90
71367;DHT22;60030;52.274;8.040;2023-05-02T08:48:06;11.80;99.90
71367;DHT22;60030;52.274;8.040;2023-05-02T08:50:36;11.90;99.90
71367;DHT22;60030;52.274;8.040;2023-05-02T08:53:05;11.90;99.90
71367;DHT22;60030;52.274;8.040;2023-05-02T08:55:33;12.00;99.90
71367;DHT22;60030;52.274;8.040;2023-05-02T08:58:03;12.10;99.90
71367;DHT22;60030;52.274;8.040;2023-05-02T09:00:32;12.20;99.90
71367;DHT22;60030;52.274;8.040;2023-05-02T09:03:05;12.50;99.90
71367;DHT22;60030;52.274;8.040;2023-05-02T09:05:37;12.50;99.90
71367;DHT22;60030;52.274;8.040;2023-05-02T09:08:06;12.80;99.90
71367;DHT22;60030;52.274;8.040;2023-05-02T09:10:34;12.60;99.90
71367;DHT22;60030;52.274;8.040;2023-05-02T09:13:31;12.10;99.90
71367;DHT22;60030;52.274;8.040;2023-05-02T09:16:00;12.30;99.90
71367;DHT22;60030;52.274;8.040;2023-05-02T09:18:29;12.80;99.90
71367;DHT22;60030;52.274;8.040;2023-05-02T09:20:58;12.60;99.90
71367;DHT22;60030;52.274;8.040;2023-05-02T09:23:39;12.70;99.90
71367;DHT22;60030;52.274;8.040;2023-05-02T09:26:15;12.70;99.90
71367;DHT22;60030;52.274;8.040;2023-05-02T09:28:45;12.60;99.90
71367;DHT22;60030;52.274;8.040;2023-05-02T09:31:14;12.60;99.90
71367;DHT22;60030;52.274;8.040;2023-05-02T09:33:42;12.80;99.90
71367;DHT22;60030;52.274;8.040;2023-05-02T09:36:12;12.60;99.90
71367;DHT22;60030;52.274;8.040;2023-05-02T09:38:46;13.00;99.90
71367;DHT22;60030;52.274;8.040;2023-05-02T09:41:14;12.60;99.90
71367;DHT22;60030;52.274;8.040;2023-05-02T09:43:54;12.70;99.90
71367;DHT22;60030;52.274;8.040;2023-05-02T09:46:21;13.00;99.90
71367;DHT22;60030;52.274;8.040;2023-05-02T09:48:51;12.80;99.90
71367;DHT22;60030;52.274;8.040;2023-05-02T09:51:19;12.90;99.90
71367;DHT22;60030;52.274;8.040;2023-05-02T09:53:48;12.90;99.90
71367;DHT22;60030;52.274;8.040;2023-05-02T09:56:16;12.90;99.90
71367;DHT22;60030;52.274;8.040;2023-05-02T09:58:45;12.90;99.90
71367;DHT22;60030;52.274;8.040;2023-05-02T10:01:16;13.00;99.90
71367;DHT22;60030;52.274;8.040;2023-05-02T10:03:47;13.10;99.90
71367;DHT22;60030;52.274;8.040;2023-05-02T10:06:15;13.10;99.90
71367;DHT22;60030;52.274;8.040;2023-05-02T10:08:43;13.10;99.90
71367;DHT22;60030;52.274;8.040;2023-05-02T10:11:12;13.10;99.90
71367;DHT22;60030;52.274;8.040;2023-05-02T10:13:46;13.20;99.90
71367;DHT22;60030;52.274;8.040;2023-05-02T10:16:15;13.10;99.90
71367;DHT22;60030;52.274;8.040;2023-05-02T10:18:58;13.10;99.90
71367;DHT22;60030;52.274;8.040;2023-05-02T10:21:29;13.00;99.90
71367;DHT22;60030;52.274;8.040;2023-05-02T10:23:57;12.90;99.90
71367;DHT22;60030;52.274;8.040;2023-05-02T10:26:26;12.70;99.90
71367;DHT22;60030;52.274;8.040;2023-05-02T10:28:56;12.80;99.90
71367;DHT22;60030;52.274;8.040;2023-05-02T10:31:23;12.40;99.90
71367;DHT22;60030;52.274;8.040;2023-05-02T10:33:52;12.80;99.90
71367;DHT22;60030;52.274;8.040;2023-05-02T10:36:22;13.20;99.90
71367;DHT22;60030;52.274;8.040;2023-05-02T10:38:50;13.60;99.90
71367;DHT22;60030;52.274;8.040;2023-05-02T10:41:19;13.50;99.60
71367;DHT22;60030;52.274;8.040;2023-05-02T10:43:50;13.50;98.60
71367;DHT22;60030;52.274;8.040;2023-05-02T10:46:33;13.60;97.80
71367;DHT22;60030;52.274;8.040;2023-05-02T10:49:03;13.70;98.10
71367;DHT22;60030;52.274;8.040;2023-05-02T10:51:31;13.90;97.20
71367;DHT22;60030;52.274;8.040;2023-05-02T10:54:22;13.80;98.10
71367;DHT22;60030;52.274;8.040;2023-05-02T10:57:06;13.70;97.50
71367;DHT22;60030;52.274;8.040;2023-05-02T10:59:36;13.90;96.60
71367;DHT22;60030;52.274;8.040;2023-05-02T11:02:45;13.60;97.70
71367;DHT22;60030;52.274;8.040;2023-05-02T11:05:14;14.00;97.20
71367;DHT22;60030;52.274;8.040;2023-05-02T11:07:42;14.10;95.80
71367;DHT22;60030;52.274;8.040;2023-05-02T11:10:27;14.10;94.80
71367;DHT22;60030;52.274;8.040;2023-05-02T11:12:55;14.20;94.50
71367;DHT22;60030;52.274;8.040;2023-05-02T11:15:53;14.40;92.70
71367;DHT22;60030;52.274;8.040;2023-05-02T11:18:23;14.50;91.00
71367;DHT22;60030;52.274;8.040;2023-05-02T11:20:51;14.40;91.10
71367;DHT22;60030;52.274;8.040;2023-05-02T11:23:20;14.00;91.50
71367;DHT22;60030;52.274;8.040;2023-05-02T11:25:50;14.20;89.60
71367;DHT22;60030;52.274;8.040;2023-05-02T11:28:43;14.30;90.00
71367;DHT22;60030;52.274;8.040;2023-05-02T11:34:38;14.90;86.40
71367;DHT22;60030;52.274;8.040;2023-05-02T11:37:14;14.90;86.00
71367;DHT22;60030;52.274;8.040;2023-05-02T11:39:42;14.80;86.90
71367;DHT22;60030;52.274;8.040;2023-05-02T11:42:26;14.50;87.70
71367;DHT22;60030;52.274;8.040;2023-05-02T11:44:55;14.20;87.30
71367;DHT22;60030;52.274;8.040;2023-05-02T11:47:23;14.10;88.50
71367;DHT22;60030;52.274;8.040;2023-05-02T11:49:53;14.50;85.30
71367;DHT22;60030;52.274;8.040;2023-05-02T11:52:22;14.10;83.60
71367;DHT22;60030;52.274;8.040;2023-05-02T11:54:53;14.30;84.40
71367;DHT22;60030;52.274;8.040;2023-05-02T11:57:20;14.80;83.50
71367;DHT22;60030;52.274;8.040;2023-05-02T11:59:51;14.60;81.70
71367;DHT22;60030;52.274;8.040;2023-05-02T12:02:24;15.10;81.20
71367;DHT22;60030;52.274;8.040;2023-05-02T12:05:03;15.50;80.90
71367;DHT22;60030;52.274;8.040;2023-05-02T12:07:36;15.40;82.20
71367;DHT22;60030;52.274;8.040;2023-05-02T12:10:07;15.10;82.60
71367;DHT22;60030;52.274;8.040;2023-05-02T12:12:35;14.70;85.20
71367;DHT22;60030;52.274;8.040;2023-05-02T12:15:03;14.50;87.50
71367;DHT22;60030;52.274;8.040;2023-05-02T12:17:33;14.50;86.30
71367;DHT22;60030;52.274;8.040;2023-05-02T12:20:04;14.90;86.30
71367;DHT22;60030;52.274;8.040;2023-05-02T12:22:32;14.70;85.00
71367;DHT22;60030;52.274;8.040;2023-05-02T12:25:07;14.40;85.30
71367;DHT22;60030;52.274;8.040;2023-05-02T12:27:34;14.50;82.80
71367;DHT22;60030;52.274;8.040;2023-05-02T12:30:03;14.70;82.50
71367;DHT22;60030;52.274;8.040;2023-05-02T12:32:32;15.00;81.20
71367;DHT22;60030;52.274;8.040;2023-05-02T12:35:00;15.10;80.50
71367;DHT22;60030;52.274;8.040;2023-05-02T12:37:33;15.10;79.20
71367;DHT22;60030;52.274;8.040;2023-05-02T12:40:01;15.50;77.70
71367;DHT22;60030;52.274;8.040;2023-05-02T12:42:28;14.80;76.60
71367;DHT22;60030;52.274;8.040;2023-05-02T12:45:00;15.10;76.80
71367;DHT22;60030;52.274;8.040;2023-05-02T12:47:43;16.20;73.50
71367;DHT22;60030;52.274;8.040;2023-05-02T12:50:11;17.30;69.50
71367;DHT22;60030;52.274;8.040;2023-05-02T12:52:47;16.60;69.40
71367;DHT22;60030;52.274;8.040;2023-05-02T12:55:15;19.10;63.40
71367;DHT22;60030;52.274;8.040;2023-05-02T12:57:43;20.30;58.80
71367;DHT22;60030;52.274;8.040;2023-05-02T13:00:11;19.10;58.60
71367;DHT22;60030;52.274;8.040;2023-05-02T13:02:40;17.80;61.90
71367;DHT22;60030;52.274;8.040;2023-05-02T13:05:14;17.30;64.90
71367;DHT22;60030;52.274;8.040;2023-05-02T13:07:42;17.10;64.70
71367;DHT22;60030;52.274;8.040;2023-05-02T13:10:11;17.60;64.10
71367;DHT22;60030;52.274;8.040;2023-05-02T13:12:40;17.30;65.10
71367;DHT22;60030;52.274;8.040;2023-05-02T13:15:08;16.30;67.00
71367;DHT22;60030;52.274;8.040;2023-05-02T13:17:35;16.50;68.80
71367;DHT22;60030;52.274;8.040;2023-05-02T13:20:04;16.80;67.60
71367;DHT22;60030;52.274;8.040;2023-05-02T13:22:32;16.50;66.90
71367;DHT22;60030;52.274;8.040;2023-05-02T13:24:59;16.30;67.80
71367;DHT22;60030;52.274;8.040;2023-05-02T13:27:28;16.30;68.40
71367;DHT22;60030;52.274;8.040;2023-05-02T13:29:55;16.10;69.80
71367;DHT22;60030;52.274;8.040;2023-05-02T13:32:22;16.40;68.80
71367;DHT22;60030;52.274;8.040;2023-05-02T13:34:50;17.80;64.10
71367;DHT22;60030;52.274;8.040;2023-05-02T13:37:17;19.60;59.90
71367;DHT22;60030;52.274;8.040;2023-05-02T13:39:45;18.70;59.90
71367;DHT22;60030;52.274;8.040;2023-05-02T13:42:12;18.30;60.20
71367;DHT22;60030;52.274;8.040;2023-05-02T13:44:41;18.00;60.40
71367;DHT22;60030;52.274;8.040;2023-05-02T13:47:09;17.40;61.60
71367;DHT22;60030;52.274;8.040;2023-05-02T13:49:37;17.40;62.50
71367;DHT22;60030;52.274;8.040;2023-05-02T13:52:04;17.50;61.80
71367;DHT22;60030;52.274;8.040;2023-05-02T13:54:33;18.10;60.80
71367;DHT22;60030;52.274;8.040;2023-05-02T13:57:00;18.40;59.70
71367;DHT22;60030;52.274;8.040;2023-05-02T13:59:30;19.20;58.00
71367;DHT22;60030;52.274;8.040;2023-05-02T14:01:59;19.30;57.60
71367;DHT22;60030;52.274;8.040;2023-05-02T14:04:27;18.80;58.40
71367;DHT22;60030;52.274;8.040;2023-05-02T14:06:55;17.50;59.60
71367;DHT22;60030;52.274;8.040;2023-05-02T14:09:24;17.40;61.70
71367;DHT22;60030;52.274;8.040;2023-05-02T14:11:52;19.50;58.20
71367;DHT22;60030;52.274;8.040;2023-05-02T14:14:20;19.20;57.70
71367;DHT22;60030;52.274;8.040;2023-05-02T14:16:47;19.90;56.20
71367;DHT22;60030;52.274;8.040;2023-05-02T14:19:17;19.50;56.60
71367;DHT22;60030;52.274;8.040;2023-05-02T14:21:44;19.20;56.40
71367;DHT22;60030;52.274;8.040;2023-05-02T14:24:12;19.00;57.40
71367;DHT22;60030;52.274;8.040;2023-05-02T14:26:40;18.60;58.30
71367;DHT22;60030;52.274;8.040;2023-05-02T14:29:07;18.20;59.50
71367;DHT22;60030;52.274;8.040;2023-05-02T14:31:35;18.00;59.80
71367;DHT22;60030;52.274;8.040;2023-05-02T14:34:03;17.80;60.80
71367;DHT22;60030;52.274;8.040;2023-05-02T14:36:31;17.90;59.80
71367;DHT22;60030;52.274;8.040;2023-05-02T14:38:59;17.30;61.30
71367;DHT22;60030;52.274;8.040;2023-05-02T14:41:26;17.00;62.90
71367;DHT22;60030;52.274;8.040;2023-05-02T14:43:53;16.80;62.70
71367;DHT22;60030;52.274;8.040;2023-05-02T14:46:21;16.70;62.70
71367;DHT22;60030;52.274;8.040;2023-05-02T14:48:48;16.60;63.80
71367;DHT22;60030;52.274;8.040;2023-05-02T14:51:15;16.70;62.40
71367;DHT22;60030;52.274;8.040;2023-05-02T14:53:46;16.40;62.20
71367;DHT22;60030;52.274;8.040;2023-05-02T14:56:14;16.50;62.40
71367;DHT22;60030;52.274;8.040;2023-05-02T14:58:43;17.00;62.50
71367;DHT22;60030;52.274;8.040;2023-05-02T15:01:17;16.90;61.40
71367;DHT22;60030;52.274;8.040;2023-05-02T15:03:45;16.30;63.70
71367;DHT22;60030;52.274;8.040;2023-05-02T15:06:14;16.10;63.50
71367;DHT22;60030;52.274;8.040;2023-05-02T15:08:43;16.00;63.90
71367;DHT22;60030;52.274;8.040;2023-05-02T15:11:11;15.70;64.90
71367;DHT22;60030;52.274;8.040;2023-05-02T15:13:38;15.60;66.00
71367;DHT22;60030;52.274;8.040;2023-05-02T15:16:06;15.80;65.70
71367;DHT22;60030;52.274;8.040;2023-05-02T15:18:33;15.80;65.70
71367;DHT22;60030;52.274;8.040;2023-05-02T15:21:01;15.50;66.30
71367;DHT22;60030;52.274;8.040;2023-05-02T15:23:28;15.60;66.00
71367;DHT22;60030;52.274;8.040;2023-05-02T15:25:57;15.80;65.90
71367;DHT22;60030;52.274;8.040;2023-05-02T15:28:25;16.20;65.00
71367;DHT22;60030;52.274;8.040;2023-05-02T15:30:52;16.40;63.70
71367;DHT22;60030;52.274;8.040;2023-05-02T15:33:19;16.30;64.60
71367;DHT22;60030;52.274;8.040;2023-05-02T15:35:54;16.50;64.50
71367;DHT22;60030;52.274;8.040;2023-05-02T15:38:23;16.50;64.20
71367;DHT22;60030;52.274;8.040;2023-05-02T15:40:55;16.70;62.70
71367;DHT22;60030;52.274;8.040;2023-05-02T15:43:24;16.40;63.60
71367;DHT22;60030;52.274;8.040;2023-05-02T15:45:52;16.30;62.50
71367;DHT22;60030;52.274;8.040;2023-05-02T15:48:21;15.70;64.20